Time;durP1;ratioP1;P1;durP2;ratioP2;P2;SDS_P1;SDS_P2;PMS_P1;PMS_P2;Temp;Humidity;BMP_temperature;BMP_pressure;BME280_temperature;BME280_humidity;BME280_pressure;Samples;Min_cycle;Max_cycle;Signal;HPM_P1;HPM_P2
2021/04/07 00:00:01;;;;;;;55.35;17.45;;;;;;;-1.72;69.77;97638.77;2216191;80;21727;-88
2021/04/07 00:03:04;;;;;;;47.25;19.20;;;;;;;-1.76;69.75;97642.04;2216685;80;21155;-87
2021/04/07 00:06:05;;;;;;;49.80;18.30;;;;;;;-1.77;70.01;97637.04;2216383;80;21298;-86
2021/04/07 00:09:07;;;;;;;59.55;19.57;;;;;;;-1.81;70.09;97639.06;2216609;80;21313;-87
2021/04/07 00:12:09;;;;;;;49.93;19.60;;;;;;;-1.81;69.96;97638.25;2216755;80;21297;-88
2021/04/07 00:15:11;;;;;;;61.48;21.75;;;;;;;-1.81;70.05;97637.78;2216344;80;21326;-87
2021/04/07 00:18:13;;;;;;;53.00;19.57;;;;;;;-1.82;70.08;97643.85;2216788;80;21317;-87
2021/04/07 00:21:15;;;;;;;56.13;19.62;;;;;;;-1.83;69.97;97643.52;2217003;80;21292;-86
2021/04/07 00:24:17;;;;;;;51.13;18.00;;;;;;;-1.86;70.20;97645.03;2216909;80;21147;-89
2021/04/07 00:27:25;;;;;;;47.60;18.30;;;;;;;-1.89;70.12;97648.34;2216634;80;21297;-89
2021/04/07 00:30:23;;;;;;;47.73;19.52;;;;;;;-1.92;70.29;97646.84;2215926;80;21316;-89
2021/04/07 00:33:25;;;;;;;39.90;17.52;;;;;;;-1.97;70.46;97644.30;2216650;80;21182;-85
2021/04/07 00:36:26;;;;;;;45.92;20.23;;;;;;;-1.99;70.54;97651.33;2217099;80;21200;-87
2021/04/07 00:39:28;;;;;;;41.73;18.48;;;;;;;-2.02;70.82;97648.52;2219903;80;21303;-89
2021/04/07 00:42:30;;;;;;;45.92;20.72;;;;;;;-2.04;70.81;97663.23;2220579;80;21655;-89
2021/04/07 00:45:32;;;;;;;42.45;20.23;;;;;;;-2.08;70.88;97652.42;2220823;80;21647;-88
2021/04/07 00:48:34;;;;;;;49.65;21.23;;;;;;;-2.08;71.04;97649.86;2194516;80;21722;-87
2021/04/07 00:51:36;;;;;;;55.25;22.13;;;;;;;-2.08;71.05;97649.05;2220970;80;21285;-87
2021/04/07 00:54:38;;;;;;;44.98;20.92;;;;;;;-2.13;71.19;97656.29;2220592;80;21166;-88
2021/04/07 00:57:40;;;;;;;36.83;20.75;;;;;;;-2.14;71.19;97659.80;2220737;80;21139;-87
2021/04/07 01:03:51;;;;;;;53.55;26.37;;;;;;;-2.15;71.46;97650.48;2109865;84;21143;-86
2021/04/07 01:06:53;;;;;;;53.10;23.95;;;;;;;-2.14;71.51;97650.34;2109626;84;21157;-85
2021/04/07 01:09:54;;;;;;;50.30;22.65;;;;;;;-2.13;71.68;97650.69;2109826;84;21347;-84
2021/04/07 01:12:56;;;;;;;53.90;23.80;;;;;;;-2.14;71.65;97656.77;2109499;84;21316;-84
2021/04/07 01:15:58;;;;;;;60.17;24.07;;;;;;;-2.14;71.68;97656.77;2109461;84;21321;-84
2021/04/07 01:18:59;;;;;;;54.30;22.75;;;;;;;-2.14;71.70;97660.61;2109398;84;21202;-85
2021/04/07 01:22:01;;;;;;;43.05;20.35;;;;;;;-2.12;71.94;97669.45;2109562;84;21186;-85
2021/04/07 01:25:03;;;;;;;46.42;21.73;;;;;;;-2.11;71.95;97667.23;2109967;84;21303;-84
2021/04/07 01:28:05;;;;;;;44.80;23.85;;;;;;;-2.12;72.05;97668.17;2109818;84;21146;-84
2021/04/07 01:31:08;;;;;;;40.48;21.73;;;;;;;-2.17;72.15;97662.16;2109930;84;21171;-84
2021/04/07 01:34:09;;;;;;;44.18;22.02;;;;;;;-2.20;72.13;97658.53;2109755;84;21145;-84
2021/04/07 01:37:11;;;;;;;49.30;22.90;;;;;;;-2.20;72.28;97662.38;2109803;84;21316;-84
2021/04/07 01:40:13;;;;;;;46.02;21.52;;;;;;;-2.19;72.35;97665.79;2109668;84;21720;-84
2021/04/07 01:43:15;;;;;;;37.35;20.30;;;;;;;-2.18;72.35;97663.56;2109560;84;21170;-84
2021/04/07 01:46:16;;;;;;;37.28;18.52;;;;;;;-2.19;72.30;97663.23;2109611;84;21182;-84
2021/04/07 01:49:18;;;;;;;39.27;19.82;;;;;;;-2.24;72.58;97673.03;2109731;84;21753;-83
2021/04/07 01:52:21;;;;;;;42.15;21.45;;;;;;;-2.28;72.81;97675.52;2109924;84;21190;-84
2021/04/07 01:55:22;;;;;;;39.60;19.85;;;;;;;-2.30;73.09;97671.30;2109592;84;21296;-84
2021/04/07 01:58:24;;;;;;;32.88;20.57;;;;;;;-2.24;73.27;97687.13;2109770;84;21640;-84
2021/04/07 02:01:26;;;;;;;42.98;22.22;;;;;;;-2.26;73.15;97679.57;2109771;84;21173;-85
2021/04/07 02:04:27;;;;;;;43.48;21.17;;;;;;;-2.26;73.13;97688.55;2112748;84;21142;-85
2021/04/07 02:07:29;;;;;;;43.55;22.50;;;;;;;-2.24;73.35;97693.55;2113035;84;21283;-84
2021/04/07 02:10:31;;;;;;;38.42;20.90;;;;;;;-2.20;73.31;97691.87;2112739;84;21170;-84
2021/04/07 02:13:33;;;;;;;45.23;24.77;;;;;;;-2.18;73.25;97696.44;2113065;84;21161;-84
2021/04/07 02:16:34;;;;;;;44.65;23.65;;;;;;;-2.13;73.44;97690.92;2112695;84;21185;-85
2021/04/07 02:19:36;;;;;;;41.98;23.80;;;;;;;-2.12;73.33;97693.35;2112933;84;21331;-84
2021/04/07 02:22:38;;;;;;;46.95;24.57;;;;;;;-2.13;73.32;97697.33;2112923;84;21327;-85
2021/04/07 02:25:39;;;;;;;45.17;24.72;;;;;;;-2.14;73.45;97693.14;2112747;84;21673;-86
2021/04/07 02:28:41;;;;;;;44.05;24.37;;;;;;;-2.15;73.47;97701.78;2112639;84;21182;-86
2021/04/07 02:31:43;;;;;;;42.03;22.35;;;;;;;-2.13;73.65;97703.27;2112570;84;21617;-87
2021/04/07 02:34:45;;;;;;;41.83;22.42;;;;;;;-2.04;73.82;97705.56;2112493;84;21154;-86
2021/04/07 02:37:47;;;;;;;41.55;22.93;;;;;;;-1.97;73.80;97699.47;2112984;84;21197;-86
2021/04/07 02:40:48;;;;;;;45.00;22.25;;;;;;;-1.92;73.88;97702.45;2113072;84;21327;-85
2021/04/07 02:43:50;;;;;;;42.33;22.70;;;;;;;-1.85;73.97;97699.73;2112880;84;21327;-86
2021/04/07 02:46:52;;;;;;;42.83;22.37;;;;;;;-1.78;73.94;97701.67;2112642;84;21149;-86
2021/04/07 02:49:54;;;;;;;38.02;21.27;;;;;;;-1.69;73.82;97707.80;2112708;84;21146;-87
2021/04/07 02:52:55;;;;;;;38.23;21.62;;;;;;;-1.66;73.88;97705.44;2112829;84;21134;-85
2021/04/07 02:55:57;;;;;;;39.55;22.27;;;;;;;-1.62;73.77;97701.70;2112870;84;21312;-85
2021/04/07 02:58:58;;;;;;;34.88;20.30;;;;;;;-1.56;73.64;97709.67;2112633;84;21178;-84
2021/04/07 03:02:00;;;;;;;45.23;23.38;;;;;;;-1.56;73.80;97701.16;2111592;84;21201;-85
2021/04/07 03:05:02;;;;;;;38.85;21.02;;;;;;;-1.53;73.80;97708.63;2107435;84;21316;-84
2021/04/07 03:08:04;;;;;;;43.78;22.65;;;;;;;-1.52;73.71;97711.06;2107204;84;21194;-84
2021/04/07 03:11:07;;;;;;;42.50;21.97;;;;;;;-1.52;73.71;97709.78;2081136;84;21170;-85
2021/04/07 03:14:08;;;;;;;38.67;21.70;;;;;;;-1.51;73.72;97711.88;2107409;84;21181;-85
2021/04/07 03:17:10;;;;;;;37.88;22.95;;;;;;;-1.51;73.64;97713.16;2107392;84;21181;-85
2021/04/07 03:20:11;;;;;;;47.90;25.05;;;;;;;-1.51;73.76;97711.88;2107088;84;21162;-86
2021/04/07 03:23:13;;;;;;;40.17;22.93;;;;;;;-1.50;73.81;97714.31;2107282;84;21324;-84
2021/04/07 03:26:15;;;;;;;41.23;24.43;;;;;;;-1.49;73.78;97717.22;2106832;84;21185;-83
2021/04/07 03:29:17;;;;;;;44.38;24.12;;;;;;;-1.46;73.72;97720.02;2106810;84;21154;-84
2021/04/07 03:32:19;;;;;;;42.35;24.30;;;;;;;-1.42;73.78;97715.43;2107188;84;21162;-84
2021/04/07 03:35:20;;;;;;;44.88;24.95;;;;;;;-1.40;73.79;97718.67;2106799;84;21198;-85
2021/04/07 03:38:22;;;;;;;43.20;23.12;;;;;;;-1.39;73.71;97715.16;2107106;84;21181;-85
2021/04/07 03:41:23;;;;;;;46.90;25.00;;;;;;;-1.38;73.81;97719.35;2107014;84;21165;-84
2021/04/07 03:44:25;;;;;;;45.48;25.72;;;;;;;-1.40;73.87;97715.64;2107293;84;21161;-85
2021/04/07 03:47:27;;;;;;;45.63;25.90;;;;;;;-1.36;73.96;97717.02;2106989;84;21146;-85
2021/04/07 03:50:29;;;;;;;51.92;26.00;;;;;;;-1.35;73.80;97722.50;2107072;84;21177;-84
2021/04/07 03:53:32;;;;;;;49.95;25.75;;;;;;;-1.40;73.89;97727.19;2107274;84;21185;-84
2021/04/07 03:56:33;;;;;;;46.05;26.12;;;;;;;-1.42;73.98;97722.66;2107024;84;21600;-85
2021/04/07 03:59:35;;;;;;;50.70;25.43;;;;;;;-1.40;73.97;97734.09;2107510;84;21174;-85
2021/04/07 04:02:37;;;;;;;52.13;26.50;;;;;;;-1.43;74.04;97732.59;2107437;84;21312;-85
2021/04/07 04:05:39;;;;;;;56.65;28.02;;;;;;;-1.45;73.96;97740.43;2107665;84;21280;-86
2021/04/07 04:08:41;;;;;;;47.80;26.37;;;;;;;-1.45;74.08;97742.19;2107224;84;21162;-86
2021/04/07 04:11:42;;;;;;;52.90;27.35;;;;;;;-1.42;74.04;97744.96;2107485;84;21146;-86
2021/04/07 04:14:47;;;;;;;48.87;26.35;;;;;;;-1.45;74.21;97750.70;2107399;84;21227;-86
2021/04/07 04:17:49;;;;;;;56.65;29.42;;;;;;;-1.42;74.22;97752.19;2107426;84;21589;-86
2021/04/07 04:20:54;;;;;;;51.80;27.22;;;;;;;-1.39;74.13;97750.64;2107515;84;21713;-86
2021/04/07 04:23:55;;;;;;;56.70;28.67;;;;;;;-1.30;74.14;97748.59;2107282;84;21601;-86
2021/04/07 04:26:57;;;;;;;56.05;28.45;;;;;;;-1.24;73.92;97745.98;2107643;84;21300;-86
2021/04/07 04:29:59;;;;;;;55.75;29.10;;;;;;;-1.19;73.97;97748.53;2107570;84;21163;-86
2021/04/07 04:33:01;;;;;;;45.23;25.95;;;;;;;-1.15;73.84;97748.59;2081339;84;21177;-86
2021/04/07 04:36:02;;;;;;;59.15;28.35;;;;;;;-1.12;73.73;97750.56;2107605;84;21315;-86
2021/04/07 04:39:04;;;;;;;47.65;25.97;;;;;;;-1.12;73.79;97754.41;2107610;84;21315;-85
2021/04/07 04:42:06;;;;;;;46.88;23.92;;;;;;;-1.08;73.90;97752.75;2108183;84;21336;-87
2021/04/07 04:45:09;;;;;;;44.50;23.05;;;;;;;-0.98;73.92;97757.45;2107700;84;21150;-85
2021/04/07 04:48:11;;;;;;;36.83;21.93;;;;;;;-0.95;73.80;97760.23;2107634;84;21181;-84
2021/04/07 04:51:12;;;;;;;42.13;21.07;;;;;;;-0.88;73.96;97766.48;2107869;84;21324;-83
2021/04/07 04:54:15;;;;;;;34.30;21.25;;;;;;;-0.73;73.90;97769.47;2108250;84;21201;-87
2021/04/07 04:57:17;;;;;;;43.42;21.68;;;;;;;-0.59;74.06;97763.50;2107644;84;21289;-81
2021/04/07 05:00:18;;;;;;;33.13;19.42;;;;;;;-0.52;74.47;97770.70;2107587;84;21739;-84
2021/04/07 05:03:22;;;;;;;34.35;20.60;;;;;;;-0.40;74.70;97774.77;2106023;84;21185;-86
2021/04/07 05:06:24;;;;;;;35.43;17.98;;;;;;;-0.33;75.03;97785.67;2104241;85;21185;-88
2021/04/07 05:09:26;;;;;;;40.60;21.48;;;;;;;-0.26;74.47;97789.83;2104732;85;21336;-86
2021/04/07 05:12:27;;;;;;;32.73;17.57;;;;;;;-0.20;74.39;97787.17;2104636;85;21304;-86
2021/04/07 05:15:29;;;;;;;34.92;19.57;;;;;;;-0.15;74.21;97804.32;2103704;85;21155;-86
2021/04/07 05:18:31;;;;;;;39.13;22.13;;;;;;;-0.13;74.34;97798.56;2103633;85;21173;-87
2021/04/07 05:21:33;;;;;;;52.00;23.30;;;;;;;-0.10;74.31;97804.23;2103744;85;21146;-85
2021/04/07 05:24:35;;;;;;;38.08;19.10;;;;;;;-0.07;74.40;97808.33;2103989;85;21190;-85
2021/04/07 05:27:37;;;;;;;35.50;18.67;;;;;;;0.01;75.07;97809.75;2103816;85;21154;-88
2021/04/07 05:33:59;;;;;;;43.65;22.55;;;;;;;0.16;75.30;97813.53;2103871;85;21134;-87
2021/04/07 05:37:01;;;;;;;39.00;21.97;;;;;;;0.23;74.86;97815.91;2103618;85;21187;-85
2021/04/07 05:40:03;;;;;;;61.45;25.48;;;;;;;0.35;74.65;97819.14;2103894;85;21165;-84
2021/04/07 05:43:05;;;;;;;41.88;21.65;;;;;;;0.46;74.30;97825.94;2103561;85;21621;-83
2021/04/07 05:46:08;;;;;;;36.20;18.57;;;;;;;0.52;74.36;97832.61;2103549;85;21157;-87
2021/04/07 05:49:10;;;;;;;34.95;17.92;;;;;;;0.64;74.18;97824.28;2103506;85;21170;-84
2021/04/07 05:52:12;;;;;;;36.10;19.67;;;;;;;0.81;73.77;97830.45;2103881;85;21177;-87
2021/04/07 05:55:13;;;;;;;24.32;14.25;;;;;;;0.94;73.62;97830.17;2103603;85;21169;-89
2021/04/07 05:58:15;;;;;;;23.07;16.20;;;;;;;1.14;73.32;97827.86;2103416;85;21198;-84
2021/04/07 06:01:17;;;;;;;33.50;18.27;;;;;;;1.30;72.95;97835.00;2103285;85;21137;-85
2021/04/07 06:04:19;;;;;;;22.55;14.58;;;;;;;1.45;72.80;97829.68;2105952;84;21677;-84
2021/04/07 06:07:21;;;;;;;28.07;13.80;;;;;;;1.63;72.43;97827.95;2107371;84;21303;-84
2021/04/07 06:10:24;;;;;;;23.12;14.30;;;;;;;1.86;71.98;97828.37;2107133;84;21598;-84
2021/04/07 06:13:26;;;;;;;21.00;13.45;;;;;;;2.12;71.49;97825.88;2107407;84;21177;-85
2021/04/07 06:16:29;;;;;;;24.70;15.68;;;;;;;2.24;70.27;97821.30;2106917;84;21143;-85
2021/04/07 06:19:32;;;;;;;20.50;13.43;;;;;;;2.25;70.38;97825.02;2107233;84;21170;-86
2021/04/07 06:22:33;;;;;;;24.90;15.65;;;;;;;2.19;68.85;97820.91;2107059;84;21589;-84
2021/04/07 06:25:35;;;;;;;20.80;13.72;;;;;;;2.20;69.53;97827.73;2107318;84;21276;-85
2021/04/07 06:28:37;;;;;;;18.55;13.53;;;;;;;2.29;70.05;97825.55;2107530;84;21689;-85
2021/04/07 06:31:40;;;;;;;17.92;13.40;;;;;;;2.39;69.83;97822.88;2107291;84;21320;-82
2021/04/07 06:34:42;;;;;;;13.60;11.33;;;;;;;2.51;69.72;97834.11;2107409;84;21186;-84
2021/04/07 06:37:43;;;;;;;18.17;12.60;;;;;;;2.65;69.10;97836.66;2107109;84;21189;-84
2021/04/07 06:40:45;;;;;;;17.15;12.33;;;;;;;2.63;69.09;97837.74;2107036;84;21145;-84
2021/04/07 06:43:48;;;;;;;15.53;11.45;;;;;;;2.67;68.33;97832.14;2107007;84;21143;-84
2021/04/07 06:46:51;;;;;;;14.55;10.78;;;;;;;2.71;68.24;97828.27;2107691;84;21332;-83
2021/04/07 06:49:52;;;;;;;17.12;12.50;;;;;;;2.81;68.37;97832.86;2107390;84;21202;-83
2021/04/07 06:52:54;;;;;;;14.07;10.30;;;;;;;2.99;68.29;97840.56;2107178;84;21632;-84
2021/04/07 06:55:56;;;;;;;13.88;9.00;;;;;;;3.19;67.39;97837.28;2107364;84;21194;-83
2021/04/07 06:58:58;;;;;;;10.63;8.20;;;;;;;3.36;65.94;97836.87;2107293;84;21177;-84
2021/04/07 07:02:02;;;;;;;8.90;6.33;;;;;;;3.38;66.15;97842.25;2107121;84;21138;-83
2021/04/07 07:05:05;;;;;;;10.75;7.60;;;;;;;3.55;64.70;97842.30;2103955;84;21191;-84
2021/04/07 07:08:08;;;;;;;13.68;9.40;;;;;;;3.69;64.70;97840.41;2103485;85;21150;-83
2021/04/07 07:11:10;;;;;;;14.60;10.30;;;;;;;3.61;63.89;97852.84;2103465;85;21186;-83
2021/04/07 07:14:13;;;;;;;13.93;9.78;;;;;;;3.51;64.50;97852.64;2103117;84;21162;-83
2021/04/07 07:17:16;;;;;;;14.38;8.55;;;;;;;3.45;64.89;97852.77;2103208;85;21158;-83
2021/04/07 07:20:19;;;;;;;15.13;8.90;;;;;;;3.54;64.50;97854.42;2103479;85;21118;-84
2021/04/07 07:23:23;;;;;;;13.28;7.90;;;;;;;3.47;62.82;97856.49;2102657;84;21585;-84
2021/04/07 07:26:26;;;;;;;7.22;6.03;;;;;;;3.55;63.12;97852.65;2103482;85;21284;-82
2021/04/07 07:29:29;;;;;;;9.58;6.80;;;;;;;3.55;61.37;97852.16;2103349;85;21189;-84
2021/04/07 07:32:36;;;;;;;9.60;6.42;;;;;;;3.46;61.34;97867.33;2103571;85;21173;-83
2021/04/07 07:35:37;;;;;;;9.23;6.53;;;;;;;3.41;62.75;97868.30;2103411;85;21160;-84
2021/04/07 07:38:39;;;;;;;11.45;7.80;;;;;;;3.33;60.86;97867.77;2103426;85;21165;-84
2021/04/07 07:41:42;;;;;;;9.60;7.47;;;;;;;3.34;62.66;97866.80;2103396;85;21570;-83
2021/04/07 07:44:44;;;;;;;7.65;5.55;;;;;;;3.39;62.71;97865.05;2103553;85;21613;-82
2021/04/07 07:47:47;;;;;;;9.03;5.90;;;;;;;3.48;60.76;97870.59;2103241;85;21187;-82
2021/04/07 07:50:51;;;;;;;6.70;5.42;;;;;;;3.60;60.26;97876.30;2103631;85;21158;-84
2021/04/07 07:53:55;;;;;;;7.55;5.75;;;;;;;3.53;58.04;97867.53;2103325;85;21621;-83
2021/04/07 07:57:00;;;;;;;9.03;5.90;;;;;;;3.69;57.88;97875.36;2103202;85;21163;-84
2021/04/07 08:00:01;;;;;;;10.88;6.62;;;;;;;3.80;57.69;97873.78;2103248;85;21214;-85
2021/04/07 08:03:04;;;;;;;5.08;3.80;;;;;;;3.92;57.96;97868.63;2103834;84;21636;-84
2021/04/07 08:06:09;;;;;;;4.92;3.72;;;;;;;4.12;56.47;97869.67;2107054;84;21178;-87
2021/04/07 08:09:10;;;;;;;4.67;3.50;;;;;;;4.29;54.77;97879.88;2103140;84;21165;-84
2021/04/07 08:12:12;;;;;;;8.93;4.30;;;;;;;4.46;53.50;97885.09;2107211;84;21185;-84
2021/04/07 08:15:15;;;;;;;6.55;3.92;;;;;;;4.34;52.55;97880.70;2107623;84;21760;-86
2021/04/07 08:18:16;;;;;;;12.88;5.22;;;;;;;4.22;51.47;97881.51;2107185;84;21163;-84
2021/04/07 08:21:19;;;;;;;6.47;3.98;;;;;;;4.11;52.58;97891.34;2107024;84;21228;-82
2021/04/07 08:24:21;;;;;;;7.85;5.37;;;;;;;3.94;51.94;97886.14;2107538;84;21311;-84
2021/04/07 08:27:22;;;;;;;9.58;5.25;;;;;;;3.85;54.28;97894.05;2107297;84;21161;-83
2021/04/07 08:30:25;;;;;;;5.20;4.70;;;;;;;3.86;52.88;97906.83;2107371;84;21238;-87
2021/04/07 08:33:26;;;;;;;4.40;4.03;;;;;;;3.81;52.14;97906.47;2107222;84;21170;-86
2021/04/07 08:36:29;;;;;;;5.72;4.03;;;;;;;3.88;54.15;97915.73;2106960;84;21154;-86
2021/04/07 08:39:31;;;;;;;5.80;4.37;;;;;;;3.82;53.75;97913.27;2107243;84;21593;-85
2021/04/07 08:42:32;;;;;;;8.65;4.78;;;;;;;3.69;53.47;97916.30;2107409;84;21327;-87
2021/04/07 08:45:37;;;;;;;6.58;5.65;;;;;;;3.70;53.96;97919.22;2107581;84;21190;-88
2021/04/07 08:48:39;;;;;;;5.15;4.65;;;;;;;3.74;54.36;97922.30;2107866;84;21328;-87
2021/04/07 08:51:46;;;;;;;8.45;4.75;;;;;;;3.89;54.83;97926.42;2107951;84;21319;-85
2021/04/07 08:54:51;;;;;;;4.47;4.08;;;;;;;4.14;55.33;97928.13;2107435;84;21146;-87
2021/04/07 08:57:53;;;;;;;4.90;4.08;;;;;;;4.24;54.66;97915.03;2107245;84;21574;-87
2021/04/07 09:01:07;;;;;;;;;;;;;;;;;;;;;
2021/04/07 09:22:29;;;;;;;5.90;4.80;;;;;;;4.21;53.35;97938.68;2293303;76;22185;-86
2021/04/07 09:25:32;;;;;;;5.72;4.80;;;;;;;4.24;53.29;97927.50;2263643;79;21075;-85
2021/04/07 09:28:37;;;;;;;5.10;4.10;;;;;;;4.26;53.60;97929.93;2264331;78;21296;-86
2021/04/07 09:31:39;;;;;;;6.60;5.22;;;;;;;4.24;54.26;97931.39;2264950;79;21265;-89
2021/04/07 09:34:44;;;;;;;6.00;4.83;;;;;;;4.38;54.52;97927.84;2264300;78;21292;-89
2021/04/07 09:37:49;;;;;;;7.87;5.70;;;;;;;4.51;54.46;97924.31;2233013;79;21186;-87
2021/04/07 09:40:51;;;;;;;5.08;4.37;;;;;;;4.74;53.82;97926.59;2264563;78;21280;-90
2021/04/07 09:43:55;;;;;;;6.22;4.35;;;;;;;5.02;53.75;97920.58;2264737;78;21274;-88
2021/04/07 09:46:59;;;;;;;4.78;4.15;;;;;;;5.37;52.34;97919.89;2264775;79;22243;-83
2021/04/07 09:50:01;;;;;;;4.28;3.87;;;;;;;5.70;52.58;97929.72;2264191;79;21138;-87
2021/04/07 09:53:03;;;;;;;5.70;4.25;;;;;;;5.79;50.93;97927.91;2264006;78;21166;-86
2021/04/07 09:56:05;;;;;;;4.45;3.85;;;;;;;5.71;50.77;97936.03;2263810;78;21563;-87
2021/04/07 09:59:07;;;;;;;5.50;3.83;;;;;;;5.60;51.08;97934.30;2264109;78;21285;-87
2021/04/07 10:02:09;;;;;;;8.05;4.30;;;;;;;5.49;51.68;97939.84;2264200;78;21281;-86
2021/04/07 10:05:11;;;;;;;4.70;4.17;;;;;;;5.47;51.54;97939.98;2263975;78;21146;-87
2021/04/07 10:08:12;;;;;;;6.62;5.67;;;;;;;5.51;51.69;97944.38;2264447;78;21147;-87
2021/04/07 10:11:14;;;;;;;4.78;4.33;;;;;;;5.71;52.63;97939.12;2263798;79;21292;-85
2021/04/07 10:14:18;;;;;;;6.20;4.58;;;;;;;5.92;50.53;97936.80;2264203;78;21712;-87
2021/04/07 10:17:28;;;;;;;4.25;3.80;;;;;;;6.14;48.97;97944.35;2261322;79;21625;-87
2021/04/07 10:20:42;;;;;;;;;;;;;;;;;;;;;
2021/04/07 10:23:54;;;;;;;4.75;4.30;;;;;;;6.28;49.90;97939.72;2263159;78;21105;-86
2021/04/07 10:26:57;;;;;;;5.15;4.30;;;;;;;6.19;49.48;97940.73;2263278;78;21614;-86
2021/04/07 10:29:58;;;;;;;6.28;3.77;;;;;;;5.96;49.49;97941.19;2263055;78;21151;-86
2021/04/07 10:33:01;;;;;;;9.75;5.53;;;;;;;5.75;49.46;97960.37;2263170;78;21438;-86
2021/04/07 10:36:04;;;;;;;7.67;5.25;;;;;;;5.37;51.49;97966.13;2263218;79;21248;-85
2021/04/07 10:39:06;;;;;;;11.08;6.42;;;;;;;4.85;52.93;97965.20;2264372;79;21324;-86
2021/04/07 10:45:38;;;;;;;11.48;7.55;;;;;;;4.64;54.20;97987.36;2173996;82;21283;-85
2021/04/07 10:52:06;;;;;;;5.72;4.62;;;;;;;4.55;56.89;97976.16;2263887;78;26886;-86
2021/04/07 10:55:17;;;;;;;4.95;3.98;;;;;;;4.54;55.91;97985.72;2238689;79;21174;-86
2021/04/07 10:58:19;;;;;;;8.65;5.15;;;;;;;4.56;55.16;97986.86;2240375;79;21142;-88
2021/04/07 11:01:20;;;;;;;3.92;3.52;;;;;;;4.61;54.25;97987.69;2241389;79;21764;-88
2021/04/07 11:04:22;;;;;;;6.58;4.28;;;;;;;4.60;53.79;97973.92;2241229;79;21138;-89
2021/04/07 11:07:24;;;;;;;8.58;5.80;;;;;;;4.77;54.04;97982.05;2241694;79;21735;-86
2021/04/07 11:10:26;;;;;;;8.33;5.22;;;;;;;4.80;53.25;97974.42;2241472;79;21154;-91
2021/04/07 11:13:28;;;;;;;7.03;4.17;;;;;;;4.87;53.17;97979.79;2241619;79;21150;-88
2021/04/07 11:16:30;;;;;;;12.95;5.87;;;;;;;4.98;52.51;97984.17;2241361;79;21132;-90
2021/04/07 11:19:32;;;;;;;6.75;3.80;;;;;;;4.99;54.08;97989.67;2241469;79;21370;-90
2021/04/07 11:22:34;;;;;;;7.00;4.60;;;;;;;5.06;54.86;97999.74;2241484;79;21620;-83
2021/04/07 11:25:36;;;;;;;5.83;5.10;;;;;;;5.07;55.33;98000.06;2241516;79;21177;-88
2021/04/07 11:28:38;;;;;;;3.45;3.22;;;;;;;4.95;56.28;98000.06;2241570;79;21133;-90
2021/04/07 11:31:40;;;;;;;3.75;3.37;;;;;;;4.77;58.32;97997.61;2241609;79;21308;-90
2021/04/07 11:34:48;;;;;;;4.08;3.67;;;;;;;4.46;59.43;98008.22;2241317;79;21831;-89
2021/04/07 11:37:52;;;;;;;4.55;4.15;;;;;;;4.22;61.15;98007.19;2242048;79;21158;-88
2021/04/07 11:41:40;;;;;;;4.62;3.95;;;;;;;4.01;60.03;98021.00;2241282;79;21585;-89
2021/04/07 12:02:56;;;;;;;4.83;4.30;;;;;;;5.36;59.27;97994.86;2249510;78;26651;-89
2021/04/07 12:05:59;;;;;;;6.42;5.58;;;;;;;5.53;59.61;97998.25;2241179;79;21617;-89
2021/04/07 12:09:01;;;;;;;5.50;3.95;;;;;;;5.89;59.09;97998.66;2240942;79;21587;-90
2021/04/07 12:12:06;;;;;;;4.87;4.08;;;;;;;6.35;57.71;97993.64;2241146;79;21256;-89
2021/04/07 12:15:07;;;;;;;4.85;4.40;;;;;;;6.65;56.99;97996.72;2241102;79;21295;-90
2021/04/07 12:18:09;;;;;;;5.80;4.35;;;;;;;6.59;57.27;98001.82;2241253;79;21312;-90
2021/04/07 12:25:02;;;;;;;4.62;3.27;;;;;;;5.60;57.14;98013.02;2182697;81;21179;-89
2021/04/07 12:28:07;;;;;;;3.77;2.30;;;;;;;4.91;58.88;98026.47;2182008;81;21575;-89
2021/04/07 12:31:12;;;;;;;2.72;1.87;;;;;;;4.54;58.59;98023.80;2183060;81;21211;-89
2021/04/07 12:34:14;;;;;;;2.40;2.20;;;;;;;4.23;58.29;98020.47;2182972;81;21333;-88
2021/04/07 12:37:18;;;;;;;3.80;2.98;;;;;;;4.08;58.64;98021.20;2183023;81;21353;-89
2021/04/07 12:40:22;;;;;;;5.45;3.02;;;;;;;4.09;59.10;98017.64;2183424;81;21123;-90
2021/04/07 12:43:24;;;;;;;4.80;2.35;;;;;;;4.19;58.78;98024.33;2184050;81;21378;-88
2021/04/07 12:46:27;;;;;;;3.72;2.83;;;;;;;4.23;57.59;98017.88;2182718;81;21329;-89
2021/04/07 12:49:31;;;;;;;3.92;2.10;;;;;;;4.29;56.86;98016.42;2183029;81;21281;-88
2021/04/07 12:52:33;;;;;;;4.30;2.30;;;;;;;4.23;57.46;98019.17;2182901;81;21761;-89
2021/04/07 12:55:35;;;;;;;3.00;2.60;;;;;;;4.36;58.02;98024.39;2183690;81;21765;-90
2021/04/07 12:58:37;;;;;;;4.20;3.37;;;;;;;4.58;58.44;98031.61;2184290;79;21179;-90
2021/04/07 13:01:40;;;;;;;4.50;2.95;;;;;;;4.74;58.38;98029.52;2242357;78;21266;-90
2021/04/07 13:04:42;;;;;;;9.23;4.97;;;;;;;4.95;59.01;98022.61;2242017;79;21772;-88
2021/04/07 13:07:47;;;;;;;10.13;5.53;;;;;;;5.16;58.92;98022.13;2241848;79;21166;-91
2021/04/07 13:10:49;;;;;;;6.92;4.65;;;;;;;5.36;58.93;98020.33;2241596;79;21312;-90
2021/04/07 13:13:51;;;;;;;6.03;3.55;;;;;;;5.51;58.40;98020.50;2240265;79;21285;-90
2021/04/07 13:16:56;;;;;;;5.08;3.80;;;;;;;5.56;57.28;98021.28;2240283;79;21260;-90
2021/04/07 13:19:59;;;;;;;6.40;3.50;;;;;;;5.53;55.62;98023.73;2240311;79;21296;-91
2021/04/07 13:23:01;;;;;;;7.42;4.45;;;;;;;5.55;55.82;98021.77;2240228;79;21569;-91
2021/04/07 13:26:03;;;;;;;7.95;4.53;;;;;;;5.46;56.64;98018.05;2240412;79;21284;-90
2021/04/07 13:29:05;;;;;;;5.95;4.37;;;;;;;5.45;55.77;98004.75;2240289;79;21311;-90
2021/04/07 13:32:07;;;;;;;7.08;4.55;;;;;;;5.40;55.28;98014.34;2240612;79;21310;-90
2021/04/07 13:35:12;;;;;;;8.43;6.03;;;;;;;5.38;55.50;98012.37;2240624;79;21312;-91
2021/04/07 13:38:16;;;;;;;9.05;5.58;;;;;;;5.36;55.97;98007.35;2240484;79;21296;-90
2021/04/07 13:41:32;;;;;;;6.37;4.50;;;;;;;5.43;55.78;98014.01;2240419;79;21808;-90
2021/04/07 13:44:28;;;;;;;15.18;8.50;;;;;;;5.41;54.57;98003.80;2238608;79;21760;-90
2021/04/07 13:47:30;;;;;;;9.83;5.78;;;;;;;5.55;55.05;98010.58;2240450;79;21194;-89
2021/04/07 13:50:32;;;;;;;9.95;5.80;;;;;;;5.61;55.15;98007.33;2240320;79;21174;-89
2021/04/07 13:53:35;;;;;;;7.53;4.05;;;;;;;5.61;54.19;98011.23;2239984;79;21578;-90
2021/04/07 13:56:43;;;;;;;4.80;3.33;;;;;;;5.65;53.56;98020.30;2240418;79;21589;-89
2021/04/07 13:59:46;;;;;;;6.25;3.52;;;;;;;5.51;53.62;98026.98;2240020;79;21324;-89
2021/04/07 14:02:48;;;;;;;8.13;4.50;;;;;;;5.43;54.43;98038.19;2250117;79;21315;-90
2021/04/07 14:05:50;;;;;;;10.30;4.95;;;;;;;5.39;54.34;98040.80;2252342;78;21164;-90
2021/04/07 14:08:54;;;;;;;7.60;4.33;;;;;;;5.43;54.18;98033.48;2222819;79;21304;-90
2021/04/07 14:11:55;;;;;;;10.25;5.80;;;;;;;5.45;52.30;98031.53;2252072;79;21157;-90
2021/04/07 14:14:57;;;;;;;13.62;6.85;;;;;;;5.45;50.86;98031.53;2251909;78;21791;-89
2021/04/07 14:17:59;;;;;;;8.45;4.70;;;;;;;5.53;51.65;98022.92;2252336;78;21150;-90
2021/04/07 14:21:01;;;;;;;7.67;4.05;;;;;;;5.56;50.25;98033.78;2251865;78;21165;-88
2021/04/07 14:24:03;;;;;;;6.15;4.28;;;;;;;5.44;48.39;98037.70;2251701;79;21158;-85
2021/04/07 14:27:04;;;;;;;9.43;5.00;;;;;;;5.35;49.61;98042.56;2252137;78;21161;-87
2021/04/07 14:30:06;;;;;;;13.05;6.35;;;;;;;5.28;49.62;98051.48;2252195;79;21192;-86
2021/04/07 14:33:30;;;;;;;15.53;8.10;;;;;;;5.24;50.03;98046.30;2251240;78;21757;-87
2021/04/07 14:55:54;;;;;;;8.08;4.62;;;;;;;5.56;47.54;98028.59;2272752;77;22907;-85
2021/04/07 14:58:55;;;;;;;7.92;3.50;;;;;;;5.56;48.40;98029.88;2269293;78;21694;-86
2021/04/07 15:01:57;;;;;;;5.50;4.40;;;;;;;5.67;49.17;98025.67;2269171;78;21116;-86
2021/04/07 15:04:59;;;;;;;4.30;3.02;;;;;;;5.77;49.78;98025.98;2269488;78;21305;-86
2021/04/07 15:08:01;;;;;;;2.83;2.40;;;;;;;5.78;48.77;98031.00;2269329;78;21697;-87
2021/04/07 15:11:03;;;;;;;9.40;5.53;;;;;;;5.71;48.36;98032.14;2269215;78;21283;-87
2021/04/07 15:14:05;;;;;;;5.97;3.17;;;;;;;5.57;48.39;98037.19;2269322;78;21127;-86
2021/04/07 15:17:07;;;;;;;4.15;2.65;;;;;;;5.07;54.60;98090.08;2239465;78;21555;-86
2021/04/07 15:20:09;;;;;;;6.75;4.22;;;;;;;4.76;53.04;98072.51;2269244;78;21594;-86
2021/04/07 15:23:11;;;;;;;9.25;6.10;;;;;;;4.69;54.63;98074.59;2269165;78;21289;-87
2021/04/07 15:26:16;;;;;;;9.05;5.35;;;;;;;4.58;56.05;98077.47;2269367;78;21278;-87
2021/04/07 15:29:20;;;;;;;12.28;8.10;;;;;;;4.42;55.66;98071.25;2266876;78;21187;-91